Diamond Point, Washington
Current Conditions -  °F | °C
As of 5:53 PM on Saturday 22 Nov 2014 (Local Time) from KCLM Reporting Station
Light Rain Light Rain  
Wind Chill: 42°   Ceiling: 4300
Heat Index: 47°   Visibility: 10mi
Dew Point: 39°   Wind: 10mph
Humidity: 74%   Direction: 260°W
Pressure: 30"   Gusts: NA
Location:  48.0015°N, 123.09°W
Report Text: KCLM 230153Z AUTO 26009KT 10SM -RA BKN043 BKN050 OVC070 08/04 A3000 RMK AO2 RAB0054 SLP161 P0001 T00830039
Loading
Personal Weather Stations






























Interactive Weather Map New forecast layout! Learn more

10-Day Weather Forecast

Advertisements
Track Severe Weather on mobile